Time;durP1;ratioP1;P1;durP2;ratioP2;P2;SDS_P1;SDS_P2;PMS_P1;PMS_P2;Temp;Humidity;BMP_temperature;BMP_pressure;BME280_temperature;BME280_humidity;BME280_pressure;Samples;Min_cycle;Max_cycle;Signal;HPM_P1;HPM_P2
2023/03/27 00:00:19;;;;;;;;;;;5.70;99.90;;;;;;5072558;28;19920;-63
2023/03/27 00:02:48;;;;;;;;;;;5.80;99.90;;;;;;5079917;28;19919;-63
2023/03/27 00:05:19;;;;;;;;;;;5.90;99.90;;;;;;5073474;28;20281;-63
2023/03/27 00:07:47;;;;;;;;;;;5.90;99.90;;;;;;5081131;28;20055;-63
2023/03/27 00:10:13;;;;;;;;;;;5.90;99.90;;;;;;5075642;28;20280;-62
2023/03/27 00:12:39;;;;;;;;;;;5.90;99.90;;;;;;5085532;28;20264;-63
2023/03/27 00:15:05;;;;;;;;;;;6.00;99.90;;;;;;5075534;28;20387;-63
2023/03/27 00:17:30;;;;;;;;;;;6.00;99.90;;;;;;5071320;28;19920;-63
2023/03/27 00:19:56;;;;;;;;;;;6.00;99.90;;;;;;5073969;28;21695;-63
2023/03/27 00:22:21;;;;;;;;;;;6.00;99.90;;;;;;5068965;28;19916;-63
2023/03/27 00:24:47;;;;;;;;;;;6.00;99.90;;;;;;5077043;28;19940;-62
2023/03/27 00:27:13;;;;;;;;;;;6.00;99.90;;;;;;5085357;28;19912;-63
2023/03/27 00:29:38;;;;;;;;;;;6.00;99.90;;;;;;5073435;28;19916;-62
2023/03/27 00:32:04;;;;;;;;;;;6.10;99.90;;;;;;5084252;28;19912;-64
2023/03/27 00:34:30;;;;;;;;;;;6.00;99.90;;;;;;5073308;28;19912;-63
2023/03/27 00:36:56;;;;;;;;;;;6.00;99.90;;;;;;5079880;28;19912;-63
2023/03/27 00:39:22;;;;;;;;;;;5.90;99.90;;;;;;5077997;28;19920;-64
2023/03/27 00:41:48;;;;;;;;;;;5.90;99.90;;;;;;5071570;28;19923;-63
2023/03/27 00:44:33;;;;;;;;;;;5.90;99.90;;;;;;5078079;28;19913;-63
2023/03/27 00:47:01;;;;;;;;;;;5.90;99.90;;;;;;5078800;28;19912;-64
2023/03/27 00:49:29;;;;;;;;;;;5.90;99.90;;;;;;5070920;28;20295;-63
2023/03/27 00:51:57;;;;;;;;;;;5.90;99.90;;;;;;5075817;28;19912;-63
2023/03/27 00:54:25;;;;;;;;;;;5.90;99.90;;;;;;5070901;28;20274;-64
2023/03/27 00:56:54;;;;;;;;;;;5.90;99.90;;;;;;5078347;28;19912;-63
2023/03/27 00:59:21;;;;;;;;;;;5.80;99.90;;;;;;5072406;28;19928;-63
2023/03/27 01:01:47;;;;;;;;;;;5.80;99.90;;;;;;5061929;28;19916;-63
2023/03/27 01:04:13;;;;;;;;;;;5.80;99.90;;;;;;5078243;28;20419;-63
2023/03/27 01:06:40;;;;;;;;;;;5.90;99.90;;;;;;5071568;28;19920;-63
2023/03/27 01:09:08;;;;;;;;;;;5.90;99.90;;;;;;5072694;28;20003;-64
2023/03/27 01:11:52;;;;;;;;;;;5.90;99.90;;;;;;5063414;28;19920;-64
2023/03/27 01:14:17;;;;;;;;;;;5.90;99.90;;;;;;5073241;28;19939;-64
2023/03/27 01:16:52;;;;;;;;;;;5.90;99.90;;;;;;5069842;28;20352;-63
2023/03/27 01:19:21;;;;;;;;;;;5.90;99.90;;;;;;5075407;28;19924;-64
2023/03/27 01:22:14;;;;;;;;;;;5.90;99.90;;;;;;5072664;28;19919;-63
2023/03/27 01:24:45;;;;;;;;;;;5.90;99.90;;;;;;5073269;28;19974;-63
2023/03/27 01:27:17;;;;;;;;;;;5.90;99.90;;;;;;5072523;28;19924;-64
2023/03/27 01:29:45;;;;;;;;;;;5.90;99.90;;;;;;5074836;28;19912;-63
2023/03/27 01:32:38;;;;;;;;;;;5.80;99.90;;;;;;5067973;28;19913;-63
2023/03/27 01:35:07;;;;;;;;;;;5.80;99.90;;;;;;5076247;28;19912;-63
2023/03/27 01:37:46;;;;;;;;;;;5.70;99.90;;;;;;5071306;28;19989;-63
2023/03/27 01:40:15;;;;;;;;;;;5.70;99.90;;;;;;5073061;28;19921;-63
2023/03/27 01:42:50;;;;;;;;;;;5.80;99.90;;;;;;5074019;28;19916;-63
2023/03/27 01:45:18;;;;;;;;;;;5.70;99.90;;;;;;5074494;28;20007;-64
2023/03/27 01:48:02;;;;;;;;;;;5.70;99.90;;;;;;5072662;28;19913;-65
2023/03/27 01:50:31;;;;;;;;;;;5.70;99.90;;;;;;5071820;28;20388;-64
2023/03/27 01:53:02;;;;;;;;;;;5.70;99.90;;;;;;5073726;28;19919;-64
2023/03/27 01:55:30;;;;;;;;;;;5.70;99.90;;;;;;5063298;28;20386;-64
2023/03/27 01:58:02;;;;;;;;;;;5.70;99.90;;;;;;5077791;28;20379;-64
2023/03/27 02:00:28;;;;;;;;;;;5.80;99.90;;;;;;5073094;28;19925;-64
2023/03/27 02:03:14;;;;;;;;;;;5.80;99.90;;;;;;5082171;28;19916;-64
2023/03/27 02:05:43;;;;;;;;;;;5.80;99.90;;;;;;5067408;28;19916;-62
2023/03/27 02:08:10;;;;;;;;;;;5.80;99.90;;;;;;5071078;28;19912;-62
2023/03/27 02:10:39;;;;;;;;;;;5.80;99.90;;;;;;5073734;28;19978;-62
2023/03/27 02:13:13;;;;;;;;;;;5.80;99.90;;;;;;5075572;28;20268;-64
2023/03/27 02:15:40;;;;;;;;;;;5.70;99.90;;;;;;5078032;28;19913;-64
2023/03/27 02:18:08;;;;;;;;;;;5.60;99.90;;;;;;5073348;28;20350;-63
2023/03/27 02:20:38;;;;;;;;;;;5.60;99.90;;;;;;5069495;28;19978;-63
2023/03/27 02:23:05;;;;;;;;;;;5.60;99.90;;;;;;5077334;28;19916;-63
2023/03/27 02:25:32;;;;;;;;;;;5.60;99.90;;;;;;5071919;28;19912;-63
2023/03/27 02:28:17;;;;;;;;;;;5.60;99.90;;;;;;5082233;28;19938;-63
2023/03/27 02:31:01;;;;;;;;;;;5.70;99.90;;;;;;5072614;28;20431;-63
2023/03/27 02:33:45;;;;;;;;;;;5.70;99.90;;;;;;5077045;28;20369;-63
2023/03/27 02:36:20;;;;;;;;;;;5.70;99.90;;;;;;5071327;28;19912;-63
2023/03/27 02:39:21;;;;;;;;;;;5.80;99.90;;;;;;5072876;28;19928;-63
2023/03/27 02:41:51;;;;;;;;;;;5.70;99.90;;;;;;4970811;28;19914;-62
2023/03/27 02:44:31;;;;;;;;;;;5.70;99.90;;;;;;4975148;28;20408;-64
2023/03/27 02:47:09;;;;;;;;;;;5.70;99.90;;;;;;4977690;28;20371;-63
2023/03/27 02:49:43;;;;;;;;;;;5.70;99.90;;;;;;4972247;28;19920;-63
2023/03/27 02:52:13;;;;;;;;;;;5.70;99.90;;;;;;4964621;28;19914;-63
2023/03/27 02:54:41;;;;;;;;;;;5.70;99.90;;;;;;4969641;28;19918;-63
2023/03/27 02:57:09;;;;;;;;;;;5.70;99.90;;;;;;4974700;28;19937;-63
2023/03/27 02:59:41;;;;;;;;;;;5.80;99.90;;;;;;4986249;28;19977;-63
2023/03/27 03:02:11;;;;;;;;;;;5.70;99.90;;;;;;4975067;28;19918;-63
2023/03/27 03:04:42;;;;;;;;;;;5.70;99.90;;;;;;4977083;28;20448;-63
2023/03/27 03:07:08;;;;;;;;;;;5.70;99.90;;;;;;4974010;28;19930;-64
2023/03/27 03:09:34;;;;;;;;;;;5.60;99.90;;;;;;4979302;28;19914;-63
2023/03/27 03:12:00;;;;;;;;;;;5.60;99.90;;;;;;4980367;28;19925;-62
2023/03/27 03:14:29;;;;;;;;;;;5.60;99.90;;;;;;4962715;28;19921;-63
2023/03/27 03:16:54;;;;;;;;;;;5.60;99.90;;;;;;5082400;28;19914;-64
2023/03/27 03:19:20;;;;;;;;;;;5.50;99.90;;;;;;5087025;28;19927;-62
2023/03/27 03:21:48;;;;;;;;;;;5.50;99.90;;;;;;5082901;28;19913;-62
2023/03/27 03:24:13;;;;;;;;;;;5.50;99.90;;;;;;5063664;28;19989;-62
2023/03/27 03:26:39;;;;;;;;;;;5.50;99.90;;;;;;5071841;28;19965;-62
2023/03/27 03:29:05;;;;;;;;;;;5.40;99.90;;;;;;5091455;28;19995;-62
2023/03/27 03:31:41;;;;;;;;;;;5.40;99.90;;;;;;5087647;28;19916;-62
2023/03/27 03:34:08;;;;;;;;;;;5.40;99.90;;;;;;5068930;28;19920;-63
2023/03/27 03:36:33;;;;;;;;;;;5.40;99.90;;;;;;5070055;28;19912;-62
2023/03/27 03:38:59;;;;;;;;;;;5.40;99.90;;;;;;5071778;28;19928;-62
2023/03/27 03:41:24;;;;;;;;;;;5.40;99.90;;;;;;5080933;28;19913;-63
2023/03/27 03:43:50;;;;;;;;;;;5.30;99.90;;;;;;5078247;22;19955;-68
2023/03/27 03:46:16;;;;;;;;;;;5.40;99.90;;;;;;5077066;28;19919;-68
2023/03/27 03:48:41;;;;;;;;;;;5.30;99.90;;;;;;5083281;28;20335;-67
2023/03/27 03:51:07;;;;;;;;;;;5.30;99.90;;;;;;5071961;28;19920;-68
2023/03/27 03:53:32;;;;;;;;;;;5.40;99.90;;;;;;5073343;28;20248;-68
2023/03/27 03:55:58;;;;;;;;;;;5.30;99.90;;;;;;5053878;28;19973;-68
2023/03/27 03:58:23;;;;;;;;;;;5.30;99.90;;;;;;5066172;28;20011;-69
2023/03/27 04:00:49;;;;;;;;;;;5.30;99.90;;;;;;5082194;28;19913;-70
2023/03/27 04:03:14;;;;;;;;;;;5.30;99.90;;;;;;5088909;28;19912;-68
2023/03/27 04:05:41;;;;;;;;;;;5.30;99.90;;;;;;5078920;28;19913;-69
2023/03/27 04:08:07;;;;;;;;;;;5.30;99.90;;;;;;5082328;28;19913;-69
2023/03/27 04:10:33;;;;;;;;;;;5.30;99.90;;;;;;5083383;28;20015;-69
2023/03/27 04:12:59;;;;;;;;;;;5.20;99.90;;;;;;5074428;28;19919;-69
2023/03/27 04:15:25;;;;;;;;;;;5.30;99.90;;;;;;5080430;28;19912;-68
2023/03/27 04:17:51;;;;;;;;;;;5.30;99.90;;;;;;5072015;28;19963;-68
2023/03/27 04:20:17;;;;;;;;;;;5.20;99.90;;;;;;5078835;28;19960;-68
2023/03/27 04:22:47;;;;;;;;;;;5.30;99.90;;;;;;5072622;28;20384;-68
2023/03/27 04:25:14;;;;;;;;;;;5.30;99.90;;;;;;5069751;28;19921;-68
2023/03/27 04:27:42;;;;;;;;;;;5.30;99.90;;;;;;5062118;28;19912;-68
2023/03/27 04:30:08;;;;;;;;;;;5.20;99.90;;;;;;5069351;28;19999;-68
2023/03/27 04:32:35;;;;;;;;;;;5.20;99.90;;;;;;5074249;28;19919;-68
2023/03/27 04:35:01;;;;;;;;;;;5.20;99.90;;;;;;5057812;28;19913;-68
2023/03/27 04:37:27;;;;;;;;;;;5.20;99.90;;;;;;5077993;28;20375;-68
2023/03/27 04:39:53;;;;;;;;;;;5.10;99.90;;;;;;5069972;28;19920;-68
2023/03/27 04:42:22;;;;;;;;;;;5.10;99.90;;;;;;5073082;28;19912;-68
2023/03/27 04:44:48;;;;;;;;;;;5.10;99.90;;;;;;5073057;28;19987;-67
2023/03/27 04:47:13;;;;;;;;;;;5.00;99.90;;;;;;5072912;28;19935;-68
2023/03/27 04:49:49;;;;;;;;;;;5.00;99.90;;;;;;5071998;28;20315;-67
2023/03/27 04:52:15;;;;;;;;;;;5.00;99.90;;;;;;5056961;28;19919;-69
2023/03/27 04:54:41;;;;;;;;;;;5.00;99.90;;;;;;5074214;28;19999;-69
2023/03/27 04:57:08;;;;;;;;;;;4.90;99.90;;;;;;5065077;28;19999;-69
2023/03/27 04:59:34;;;;;;;;;;;4.80;99.90;;;;;;5081755;28;19970;-68
2023/03/27 05:02:02;;;;;;;;;;;4.80;99.90;;;;;;5071853;28;19921;-68
2023/03/27 05:04:29;;;;;;;;;;;4.70;99.90;;;;;;5074031;28;20265;-68
2023/03/27 05:06:55;;;;;;;;;;;4.70;99.90;;;;;;5071505;28;19921;-68
2023/03/27 05:09:21;;;;;;;;;;;4.70;99.90;;;;;;5070650;28;19920;-67
2023/03/27 05:11:48;;;;;;;;;;;4.60;99.90;;;;;;5074041;28;19955;-68
2023/03/27 05:14:21;;;;;;;;;;;4.60;99.90;;;;;;5075940;28;19912;-68
2023/03/27 05:16:50;;;;;;;;;;;4.60;99.90;;;;;;5062133;28;20592;-68
2023/03/27 05:19:18;;;;;;;;;;;4.50;99.90;;;;;;5075511;28;19919;-69
2023/03/27 05:21:45;;;;;;;;;;;4.50;99.90;;;;;;5081957;28;19920;-68
2023/03/27 05:24:11;;;;;;;;;;;4.40;99.90;;;;;;5074073;28;19913;-68
2023/03/27 05:26:38;;;;;;;;;;;4.40;99.90;;;;;;5077832;28;19912;-69
2023/03/27 05:29:04;;;;;;;;;;;4.40;99.90;;;;;;5069839;28;19920;-69
2023/03/27 05:31:31;;;;;;;;;;;4.30;99.90;;;;;;5077357;28;19916;-68
2023/03/27 05:33:57;;;;;;;;;;;4.30;99.90;;;;;;5070309;28;19913;-68
2023/03/27 05:36:23;;;;;;;;;;;4.30;99.90;;;;;;5071870;28;19919;-68
2023/03/27 05:38:49;;;;;;;;;;;4.30;99.90;;;;;;5073845;28;19920;-68
2023/03/27 05:41:15;;;;;;;;;;;4.30;99.90;;;;;;5086289;28;20284;-68
2023/03/27 05:43:41;;;;;;;;;;;4.30;99.90;;;;;;5073819;28;19927;-67
2023/03/27 05:46:07;;;;;;;;;;;4.30;99.90;;;;;;5059495;28;19913;-68
2023/03/27 05:48:33;;;;;;;;;;;4.30;99.90;;;;;;5068728;28;19916;-69
2023/03/27 05:50:59;;;;;;;;;;;4.20;99.90;;;;;;5073364;28;19991;-68
2023/03/27 05:53:25;;;;;;;;;;;4.40;99.90;;;;;;5085500;28;19916;-68
2023/03/27 05:55:50;;;;;;;;;;;4.30;99.90;;;;;;5075316;28;19970;-64
2023/03/27 05:58:16;;;;;;;;;;;4.30;99.90;;;;;;5064738;28;19921;-68
2023/03/27 06:00:43;;;;;;;;;;;4.30;99.90;;;;;;5062126;28;20336;-69
2023/03/27 06:03:12;;;;;;;;;;;4.30;99.90;;;;;;5059886;28;19913;-68
2023/03/27 06:05:39;;;;;;;;;;;4.30;99.90;;;;;;5067867;28;20372;-68
2023/03/27 06:08:06;;;;;;;;;;;4.30;99.90;;;;;;5059668;28;20311;-68
2023/03/27 06:10:33;;;;;;;;;;;4.30;99.90;;;;;;5070783;28;20076;-68
2023/03/27 06:13:00;;;;;;;;;;;4.40;99.90;;;;;;5069245;28;20027;-68
2023/03/27 06:15:26;;;;;;;;;;;4.40;99.90;;;;;;5068938;28;19958;-68
2023/03/27 06:17:51;;;;;;;;;;;4.50;99.90;;;;;;5060723;28;19913;-68
2023/03/27 06:20:18;;;;;;;;;;;4.60;99.90;;;;;;5070381;28;19995;-69
2023/03/27 06:22:46;;;;;;;;;;;4.60;99.90;;;;;;5071334;28;19916;-68
2023/03/27 06:25:12;;;;;;;;;;;4.70;99.90;;;;;;5064935;28;19920;-68
2023/03/27 06:27:39;;;;;;;;;;;4.70;99.90;;;;;;5073695;28;19912;-69
2023/03/27 06:30:06;;;;;;;;;;;4.80;99.90;;;;;;5078065;28;19932;-68
2023/03/27 06:32:31;;;;;;;;;;;4.80;99.90;;;;;;5068157;28;19959;-68
2023/03/27 06:34:57;;;;;;;;;;;4.90;99.90;;;;;;5069652;28;19916;-69
2023/03/27 06:37:23;;;;;;;;;;;4.90;99.90;;;;;;5073054;28;19913;-69
2023/03/27 06:39:49;;;;;;;;;;;5.00;99.90;;;;;;5066501;28;19999;-68
2023/03/27 06:42:15;;;;;;;;;;;5.00;99.90;;;;;;5061462;28;20007;-69
2023/03/27 06:44:40;;;;;;;;;;;5.10;99.90;;;;;;5077643;28;20007;-68
2023/03/27 06:47:06;;;;;;;;;;;5.20;99.90;;;;;;5070382;28;20622;-69
2023/03/27 06:49:31;;;;;;;;;;;5.20;99.90;;;;;;5081154;28;19920;-69
2023/03/27 06:51:57;;;;;;;;;;;5.30;99.90;;;;;;5080562;28;19912;-69
2023/03/27 06:54:23;;;;;;;;;;;5.40;99.90;;;;;;5071485;28;19966;-69
2023/03/27 06:56:48;;;;;;;;;;;5.50;99.90;;;;;;5065995;28;19912;-69
2023/03/27 06:59:14;;;;;;;;;;;5.50;99.90;;;;;;5065817;28;19921;-69
2023/03/27 07:01:39;;;;;;;;;;;5.60;99.90;;;;;;5046937;28;19913;-69
2023/03/27 07:04:05;;;;;;;;;;;5.70;99.90;;;;;;5058201;28;19912;-69
2023/03/27 07:06:31;;;;;;;;;;;5.70;99.90;;;;;;5067558;28;19912;-69
2023/03/27 07:08:56;;;;;;;;;;;5.80;99.90;;;;;;5067806;28;20292;-69
2023/03/27 07:11:22;;;;;;;;;;;5.90;99.90;;;;;;5070607;28;19916;-70
2023/03/27 07:13:48;;;;;;;;;;;5.90;99.90;;;;;;5064964;28;19955;-69
2023/03/27 07:16:13;;;;;;;;;;;6.00;99.90;;;;;;5067889;28;19912;-69
2023/03/27 07:18:40;;;;;;;;;;;6.00;99.90;;;;;;5069583;28;20589;-67
2023/03/27 07:21:07;;;;;;;;;;;6.00;99.90;;;;;;5063244;28;20447;-69
2023/03/27 07:23:32;;;;;;;;;;;5.90;99.90;;;;;;5069171;28;19912;-68
2023/03/27 07:25:59;;;;;;;;;;;5.90;99.90;;;;;;5070036;28;19919;-68
2023/03/27 07:28:24;;;;;;;;;;;6.00;99.90;;;;;;5064851;28;20412;-68
2023/03/27 07:30:50;;;;;;;;;;;6.10;99.90;;;;;;5069358;28;19931;-68
2023/03/27 07:33:16;;;;;;;;;;;6.20;99.90;;;;;;5052086;28;19986;-69
2023/03/27 07:35:45;;;;;;;;;;;6.40;99.90;;;;;;5068736;28;19991;-69
2023/03/27 07:38:11;;;;;;;;;;;6.40;99.90;;;;;;5067646;28;20398;-67
2023/03/27 07:40:37;;;;;;;;;;;6.50;99.90;;;;;;5068428;28;19963;-69
2023/03/27 07:43:05;;;;;;;;;;;6.60;99.90;;;;;;5065401;28;19966;-68
2023/03/27 07:45:32;;;;;;;;;;;6.70;99.90;;;;;;5069099;28;19912;-68
2023/03/27 07:48:24;;;;;;;;;;;6.80;99.90;;;;;;5068762;28;19952;-67
2023/03/27 07:50:49;;;;;;;;;;;6.80;99.90;;;;;;5066345;28;19920;-69
2023/03/27 07:53:15;;;;;;;;;;;6.80;99.90;;;;;;5068501;28;20726;-69
2023/03/27 07:55:41;;;;;;;;;;;6.90;99.90;;;;;;5070508;28;19959;-69
2023/03/27 07:58:07;;;;;;;;;;;6.90;99.90;;;;;;5060882;28;19927;-69
2023/03/27 08:00:34;;;;;;;;;;;7.00;99.90;;;;;;5060533;28;19916;-69
2023/03/27 08:03:07;;;;;;;;;;;7.00;99.90;;;;;;5067623;28;19916;-69
2023/03/27 08:05:32;;;;;;;;;;;7.00;99.90;;;;;;5066181;28;19919;-68
2023/03/27 08:07:58;;;;;;;;;;;7.10;99.90;;;;;;5068420;28;19995;-68
2023/03/27 08:10:24;;;;;;;;;;;7.10;99.90;;;;;;5062318;28;19974;-68
2023/03/27 08:12:50;;;;;;;;;;;7.10;99.90;;;;;;5067083;28;19913;-68
2023/03/27 08:15:16;;;;;;;;;;;7.10;99.90;;;;;;5065539;28;19999;-68
2023/03/27 08:17:41;;;;;;;;;;;7.20;99.90;;;;;;5067267;28;19916;-69
2023/03/27 08:20:08;;;;;;;;;;;7.30;99.90;;;;;;5067171;28;19913;-69
2023/03/27 08:22:35;;;;;;;;;;;7.40;99.90;;;;;;5070051;28;19912;-68
2023/03/27 08:25:02;;;;;;;;;;;7.50;99.90;;;;;;5059329;28;19916;-70
2023/03/27 08:27:28;;;;;;;;;;;7.50;99.90;;;;;;5043565;28;20355;-68
2023/03/27 08:29:53;;;;;;;;;;;7.40;99.90;;;;;;5066591;28;19924;-68
2023/03/27 08:32:19;;;;;;;;;;;7.40;99.90;;;;;;5065837;28;20253;-69
2023/03/27 08:34:45;;;;;;;;;;;7.40;99.90;;;;;;5067925;28;20284;-70
2023/03/27 08:37:11;;;;;;;;;;;7.50;99.90;;;;;;5063800;28;20379;-68
2023/03/27 08:39:37;;;;;;;;;;;7.60;99.90;;;;;;5067263;28;19920;-68
2023/03/27 08:42:04;;;;;;;;;;;7.60;99.90;;;;;;5064009;28;20333;-69
2023/03/27 08:44:31;;;;;;;;;;;7.60;99.90;;;;;;5065327;28;19935;-67
2023/03/27 08:46:57;;;;;;;;;;;7.60;99.90;;;;;;5049222;28;19920;-69
2023/03/27 08:49:25;;;;;;;;;;;7.70;99.90;;;;;;5069013;28;19929;-68
2023/03/27 08:51:55;;;;;;;;;;;7.80;99.90;;;;;;5069687;28;19924;-69
2023/03/27 08:54:22;;;;;;;;;;;7.90;99.90;;;;;;5059174;28;20375;-69
2023/03/27 08:56:49;;;;;;;;;;;7.90;99.90;;;;;;5063569;28;19935;-69
2023/03/27 08:59:16;;;;;;;;;;;8.00;99.90;;;;;;5068620;28;20269;-69
2023/03/27 09:01:47;;;;;;;;;;;8.10;99.90;;;;;;5066556;28;20430;-71
2023/03/27 09:04:31;;;;;;;;;;;8.20;99.90;;;;;;5061383;28;20284;-69
2023/03/27 09:06:59;;;;;;;;;;;8.30;99.90;;;;;;5065932;28;19995;-68
2023/03/27 09:09:28;;;;;;;;;;;8.40;99.90;;;;;;5065347;28;20404;-68
2023/03/27 09:12:16;;;;;;;;;;;8.40;99.90;;;;;;5064234;28;19939;-68
2023/03/27 09:14:45;;;;;;;;;;;8.40;99.90;;;;;;5063339;28;19958;-67
2023/03/27 09:17:33;;;;;;;;;;;8.40;99.90;;;;;;5062207;28;19912;-68
2023/03/27 09:20:07;;;;;;;;;;;8.40;99.90;;;;;;5019075;28;19924;-68
2023/03/27 09:22:39;;;;;;;;;;;8.50;99.90;;;;;;5001559;28;19928;-67
2023/03/27 09:25:15;;;;;;;;;;;8.50;99.90;;;;;;5004941;28;19964;-67
2023/03/27 09:27:42;;;;;;;;;;;8.60;99.90;;;;;;5020505;28;19921;-67
2023/03/27 09:30:10;;;;;;;;;;;8.70;99.90;;;;;;5020730;28;20016;-68
2023/03/27 09:32:36;;;;;;;;;;;8.70;99.90;;;;;;5021180;28;19917;-68
2023/03/27 09:35:03;;;;;;;;;;;8.90;99.90;;;;;;5016633;28;20067;-68
2023/03/27 09:37:29;;;;;;;;;;;9.00;99.90;;;;;;5020564;28;20361;-68
2023/03/27 09:39:58;;;;;;;;;;;9.00;99.90;;;;;;5017315;28;19917;-68
2023/03/27 09:42:32;;;;;;;;;;;9.00;99.90;;;;;;5017175;28;19921;-67
2023/03/27 09:44:59;;;;;;;;;;;9.10;99.90;;;;;;5022672;28;20304;-66
2023/03/27 09:47:34;;;;;;;;;;;9.20;99.90;;;;;;5019518;28;20011;-68
2023/03/27 09:50:07;;;;;;;;;;;9.30;99.90;;;;;;5020729;28;19921;-65
2023/03/27 09:52:32;;;;;;;;;;;9.30;99.90;;;;;;5021612;28;19924;-68
2023/03/27 09:54:58;;;;;;;;;;;9.30;99.90;;;;;;5018526;28;20328;-66
2023/03/27 09:57:31;;;;;;;;;;;9.50;99.90;;;;;;5048529;28;20280;-67
2023/03/27 10:00:08;;;;;;;;;;;9.50;99.90;;;;;;5062214;28;19919;-67
2023/03/27 10:02:35;;;;;;;;;;;9.50;99.90;;;;;;5063647;28;20498;-67
2023/03/27 10:05:10;;;;;;;;;;;9.40;99.90;;;;;;5057253;28;19999;-67
2023/03/27 10:07:39;;;;;;;;;;;9.50;99.90;;;;;;5063922;28;19913;-67
2023/03/27 10:10:10;;;;;;;;;;;9.60;99.90;;;;;;5063772;28;19959;-67
2023/03/27 10:12:37;;;;;;;;;;;9.60;99.90;;;;;;5039564;28;19919;-67
2023/03/27 10:15:03;;;;;;;;;;;9.70;99.90;;;;;;5061948;28;19916;-67
2023/03/27 10:17:33;;;;;;;;;;;9.80;99.90;;;;;;5060958;28;19920;-67
2023/03/27 10:20:04;;;;;;;;;;;9.90;99.90;;;;;;5061484;28;19912;-66
2023/03/27 10:22:31;;;;;;;;;;;10.00;99.90;;;;;;5064996;28;19917;-68
2023/03/27 10:25:00;;;;;;;;;;;10.20;99.90;;;;;;5059136;28;20368;-69
2023/03/27 10:27:30;;;;;;;;;;;10.30;99.90;;;;;;5053838;28;20378;-69
2023/03/27 10:29:56;;;;;;;;;;;10.50;99.90;;;;;;5065129;28;19924;-69
2023/03/27 10:32:40;;;;;;;;;;;10.60;99.90;;;;;;5058724;28;19923;-69
2023/03/27 10:35:20;;;;;;;;;;;10.70;99.90;;;;;;5067771;28;19923;-66
2023/03/27 10:37:46;;;;;;;;;;;10.60;99.90;;;;;;5063141;28;19923;-68
2023/03/27 10:40:17;;;;;;;;;;;10.80;99.90;;;;;;5065510;28;19916;-68
2023/03/27 10:42:43;;;;;;;;;;;10.90;99.90;;;;;;5060316;28;19970;-67
2023/03/27 10:45:19;;;;;;;;;;;10.90;99.90;;;;;;5045718;28;20314;-69
2023/03/27 10:47:46;;;;;;;;;;;11.00;99.90;;;;;;5063590;28;19913;-69
2023/03/27 10:50:12;;;;;;;;;;;11.30;98.70;;;;;;5068574;28;19920;-73
2023/03/27 10:52:49;;;;;;;;;;;11.40;98.30;;;;;;5070805;28;19912;-65
2023/03/27 10:55:20;;;;;;;;;;;11.30;92.20;;;;;;5064408;28;19913;-68
2023/03/27 10:57:50;;;;;;;;;;;11.30;94.90;;;;;;5069474;28;20402;-69
2023/03/27 11:00:21;;;;;;;;;;;11.30;92.80;;;;;;5066809;28;19916;-68
2023/03/27 11:02:59;;;;;;;;;;;11.30;95.70;;;;;;5065032;28;19920;-70
2023/03/27 11:05:30;;;;;;;;;;;11.50;94.20;;;;;;5070932;28;20010;-68
2023/03/27 11:07:56;;;;;;;;;;;11.30;92.40;;;;;;5070594;28;19917;-69
2023/03/27 11:10:41;;;;;;;;;;;11.20;92.70;;;;;;5045765;28;19927;-69
2023/03/27 11:13:13;;;;;;;;;;;11.20;88.40;;;;;;5050362;28;19944;-68
2023/03/27 11:15:41;;;;;;;;;;;11.00;90.70;;;;;;5067683;28;19916;-68
2023/03/27 11:18:19;;;;;;;;;;;10.80;90.20;;;;;;5065693;28;19920;-69
2023/03/27 11:20:49;;;;;;;;;;;10.80;93.10;;;;;;5066320;28;19928;-69
2023/03/27 11:23:27;;;;;;;;;;;11.30;92.60;;;;;;5065387;28;19921;-68
2023/03/27 11:25:53;;;;;;;;;;;12.30;91.40;;;;;;5069699;28;19921;-66
2023/03/27 11:28:22;;;;;;;;;;;12.60;80.70;;;;;;5067048;28;19912;-68
2023/03/27 11:31:07;;;;;;;;;;;12.20;82.40;;;;;;5049183;28;19917;-69
2023/03/27 11:33:39;;;;;;;;;;;12.50;85.40;;;;;;5069302;28;20364;-67
2023/03/27 11:36:23;;;;;;;;;;;13.30;79.40;;;;;;5071376;28;19920;-68
2023/03/27 11:38:53;;;;;;;;;;;13.70;78.50;;;;;;5069138;28;19974;-69
2023/03/27 11:41:19;;;;;;;;;;;14.10;80.20;;;;;;5063974;28;20006;-68
2023/03/27 11:43:45;;;;;;;;;;;13.90;75.90;;;;;;5066530;28;19928;-69
2023/03/27 11:46:26;;;;;;;;;;;13.20;75.30;;;;;;5066984;28;19913;-70
2023/03/27 11:48:51;;;;;;;;;;;13.00;78.70;;;;;;5066167;28;19967;-70
2023/03/27 11:51:22;;;;;;;;;;;12.30;80.30;;;;;;5045578;28;19956;-70
2023/03/27 11:54:04;;;;;;;;;;;11.80;83.60;;;;;;5069108;28;19919;-69
2023/03/27 11:56:59;;;;;;;;;;;11.50;88.10;;;;;;5040245;28;19917;-69
2023/03/27 11:59:27;;;;;;;;;;;11.60;88.60;;;;;;5045947;28;20296;-68
2023/03/27 12:02:13;;;;;;;;;;;12.30;85.90;;;;;;5065847;28;20258;-68
2023/03/27 12:04:45;;;;;;;;;;;13.00;77.20;;;;;;5044327;28;20264;-71
2023/03/27 12:07:19;;;;;;;;;;;13.40;73.90;;;;;;5061530;28;19935;-72
2023/03/27 12:09:56;;;;;;;;;;;13.80;70.40;;;;;;5067412;28;19920;-70
2023/03/27 12:12:25;;;;;;;;;;;14.30;67.00;;;;;;5067570;28;19916;-69
2023/03/27 12:14:50;;;;;;;;;;;14.70;64.10;;;;;;5067048;28;20326;-67
2023/03/27 12:17:22;;;;;;;;;;;14.50;63.70;;;;;;5062845;28;19916;-68
2023/03/27 12:20:00;;;;;;;;;;;14.00;62.90;;;;;;5067386;28;19921;-68
2023/03/27 12:22:56;;;;;;;;;;;13.70;63.30;;;;;;5066634;28;19925;-68
2023/03/27 12:25:28;;;;;;;;;;;13.00;65.40;;;;;;5043895;28;20376;-69
2023/03/27 12:28:09;;;;;;;;;;;12.30;67.30;;;;;;5048357;28;20002;-69
2023/03/27 12:30:43;;;;;;;;;;;11.80;67.60;;;;;;5062316;28;19955;-69
2023/03/27 12:33:26;;;;;;;;;;;12.00;71.10;;;;;;5067506;28;19966;-69
2023/03/27 12:35:53;;;;;;;;;;;12.20;67.90;;;;;;5067714;28;19916;-68
2023/03/27 12:38:27;;;;;;;;;;;12.40;67.20;;;;;;5040969;28;19967;-69
2023/03/27 12:41:12;;;;;;;;;;;12.70;69.50;;;;;;5062460;28;19916;-67
2023/03/27 12:43:42;;;;;;;;;;;12.90;67.40;;;;;;5065279;28;20087;-69
2023/03/27 12:46:23;;;;;;;;;;;13.00;67.70;;;;;;5060546;28;19916;-69
2023/03/27 12:49:09;;;;;;;;;;;12.60;69.10;;;;;;5063411;28;19927;-66
2023/03/27 12:51:53;;;;;;;;;;;12.50;67.80;;;;;;5067906;28;19913;-68
2023/03/27 12:54:27;;;;;;;;;;;12.40;65.80;;;;;;5067952;28;19913;-68
2023/03/27 12:57:03;;;;;;;;;;;12.50;65.90;;;;;;5059263;28;20283;-66
2023/03/27 12:59:30;;;;;;;;;;;12.60;65.10;;;;;;5070999;28;20426;-68
2023/03/27 13:01:58;;;;;;;;;;;12.70;65.90;;;;;;5062605;28;19923;-67
2023/03/27 13:04:33;;;;;;;;;;;12.60;66.50;;;;;;5066378;28;19921;-67
2023/03/27 13:07:10;;;;;;;;;;;12.50;66.60;;;;;;5053022;28;19912;-67
2023/03/27 13:09:42;;;;;;;;;;;12.50;66.30;;;;;;5054033;28;19920;-67
2023/03/27 13:12:17;;;;;;;;;;;12.40;75.30;;;;;;5066437;28;19913;-68
2023/03/27 13:14:55;;;;;;;;;;;12.80;94.50;;;;;;5065140;28;19913;-68
2023/03/27 13:17:20;;;;;;;;;;;12.70;96.80;;;;;;5060953;28;19912;-68
2023/03/27 13:19:46;;;;;;;;;;;12.60;98.30;;;;;;5059456;28;19920;-68
2023/03/27 13:22:35;;;;;;;;;;;12.60;98.20;;;;;;5043348;28;20367;-69
2023/03/27 13:25:00;;;;;;;;;;;12.50;94.20;;;;;;5041991;28;19921;-66
2023/03/27 13:27:38;;;;;;;;;;;12.60;96.90;;;;;;5060468;28;20295;-67
2023/03/27 13:30:04;;;;;;;;;;;13.70;98.50;;;;;;5062813;28;19921;-66
2023/03/27 13:32:39;;;;;;;;;;;15.40;91.50;;;;;;5059878;28;19920;-68
2023/03/27 13:35:20;;;;;;;;;;;16.50;79.50;;;;;;5070495;28;19913;-68
2023/03/27 13:37:49;;;;;;;;;;;16.60;72.50;;;;;;5060658;28;19928;-67
2023/03/27 13:40:19;;;;;;;;;;;15.70;72.00;;;;;;5057634;28;19913;-68
2023/03/27 13:42:47;;;;;;;;;;;14.90;71.90;;;;;;5060801;28;20016;-67
2023/03/27 13:45:34;;;;;;;;;;;14.00;75.20;;;;;;5058061;28;20421;-67
2023/03/27 13:48:00;;;;;;;;;;;13.50;81.60;;;;;;5062421;28;19920;-67
2023/03/27 13:50:32;;;;;;;;;;;13.20;88.30;;;;;;5040507;28;19924;-70
2023/03/27 13:53:16;;;;;;;;;;;13.30;90.50;;;;;;5069118;28;19913;-68
2023/03/27 13:55:48;;;;;;;;;;;13.00;90.60;;;;;;5056059;28;19913;-68
2023/03/27 13:58:21;;;;;;;;;;;12.90;92.00;;;;;;5055621;28;19912;-69
2023/03/27 14:00:47;;;;;;;;;;;12.60;92.30;;;;;;5056557;28;19921;-68
2023/03/27 14:03:22;;;;;;;;;;;12.20;92.10;;;;;;5058024;28;19966;-69
2023/03/27 14:05:48;;;;;;;;;;;12.00;94.70;;;;;;5061118;28;19994;-69
2023/03/27 14:08:13;;;;;;;;;;;12.30;94.20;;;;;;5060628;28;19925;-67
2023/03/27 14:10:51;;;;;;;;;;;12.50;95.70;;;;;;5064693;28;19920;-68
2023/03/27 14:13:22;;;;;;;;;;;13.40;96.20;;;;;;5061411;28;19939;-68
2023/03/27 14:16:06;;;;;;;;;;;14.90;91.20;;;;;;5065039;28;19962;-68
2023/03/27 14:18:41;;;;;;;;;;;16.30;78.40;;;;;;5061406;28;19920;-68
2023/03/27 14:21:10;;;;;;;;;;;17.00;69.00;;;;;;5070406;28;19928;-67
2023/03/27 14:23:46;;;;;;;;;;;16.10;69.00;;;;;;5065440;28;20292;-68
2023/03/27 14:26:13;;;;;;;;;;;15.00;72.60;;;;;;5060091;28;19920;-67
2023/03/27 14:28:53;;;;;;;;;;;13.70;81.10;;;;;;5061298;28;19912;-68
2023/03/27 14:31:20;;;;;;;;;;;13.00;90.60;;;;;;5062007;28;19992;-68
2023/03/27 14:33:55;;;;;;;;;;;12.70;94.40;;;;;;5067184;28;20019;-68
2023/03/27 14:36:24;;;;;;;;;;;12.30;99.90;;;;;;5060154;28;20301;-67
2023/03/27 14:38:51;;;;;;;;;;;11.90;99.90;;;;;;5063210;28;20257;-68
2023/03/27 14:41:22;;;;;;;;;;;11.70;99.90;;;;;;5061659;28;19920;-68